sensor_id;sensor_type;location;lat;lon;timestamp;pressure;altitude;pressure_sealevel;temperature;humidity
10668;BME280;5382;42.136;24.796;2022-09-03T00:02:27;99614.88;;;20.84;100.00
10668;BME280;5382;42.136;24.796;2022-09-03T00:05:03;99642.44;;;20.86;100.00
10668;BME280;5382;42.136;24.796;2022-09-03T00:07:38;99594.28;;;20.76;100.00
10668;BME280;5382;42.136;24.796;2022-09-03T00:10:11;99616.38;;;20.86;100.00
10668;BME280;5382;42.136;24.796;2022-09-03T00:12:42;99627.78;;;20.88;100.00
10668;BME280;5382;42.136;24.796;2022-09-03T00:15:12;99631.31;;;20.89;100.00
10668;BME280;5382;42.136;24.796;2022-09-03T00:17:45;99620.72;;;20.87;100.00
10668;BME280;5382;42.136;24.796;2022-09-03T00:20:18;99636.75;;;20.81;100.00
10668;BME280;5382;42.136;24.796;2022-09-03T00:22:48;99637.59;;;20.81;100.00
10668;BME280;5382;42.136;24.796;2022-09-03T00:25:19;99609.19;;;20.64;100.00
10668;BME280;5382;42.136;24.796;2022-09-03T00:27:52;99628.47;;;20.67;100.00
10668;BME280;5382;42.136;24.796;2022-09-03T00:30:20;99630.81;;;20.71;100.00
10668;BME280;5382;42.136;24.796;2022-09-03T00:32:54;99625.44;;;20.71;100.00
10668;BME280;5382;42.136;24.796;2022-09-03T00:35:25;99611.69;;;20.65;100.00
10668;BME280;5382;42.136;24.796;2022-09-03T00:37:53;99626.81;;;20.66;100.00
10668;BME280;5382;42.136;24.796;2022-09-03T00:40:38;99620.09;;;20.62;100.00
10668;BME280;5382;42.136;24.796;2022-09-03T00:43:17;99621.13;;;20.61;100.00
10668;BME280;5382;42.136;24.796;2022-09-03T00:45:53;99631.72;;;20.63;100.00
10668;BME280;5382;42.136;24.796;2022-09-03T00:48:26;99617.13;;;20.57;100.00
10668;BME280;5382;42.136;24.796;2022-09-03T00:51:16;99608.44;;;20.55;100.00
10668;BME280;5382;42.136;24.796;2022-09-03T00:53:53;99618.31;;;20.55;100.00
10668;BME280;5382;42.136;24.796;2022-09-03T00:56:31;99627.38;;;20.54;100.00
10668;BME280;5382;42.136;24.796;2022-09-03T00:59:09;99624.78;;;20.45;100.00
10668;BME280;5382;42.136;24.796;2022-09-03T01:01:43;99631.16;;;20.44;100.00
10668;BME280;5382;42.136;24.796;2022-09-03T01:04:30;99598.69;;;20.31;100.00
10668;BME280;5382;42.136;24.796;2022-09-03T01:07:07;99630.69;;;20.41;100.00
10668;BME280;5382;42.136;24.796;2022-09-03T01:09:47;99618.97;;;20.34;100.00
10668;BME280;5382;42.136;24.796;2022-09-03T01:12:24;99633.84;;;20.44;100.00
10668;BME280;5382;42.136;24.796;2022-09-03T01:15:02;99626.63;;;20.45;100.00
10668;BME280;5382;42.136;24.796;2022-09-03T01:17:39;99620.41;;;20.44;100.00
10668;BME280;5382;42.136;24.796;2022-09-03T01:20:25;99624.28;;;20.42;100.00
10668;BME280;5382;42.136;24.796;2022-09-03T01:26:04;99645.16;;;20.40;100.00
10668;BME280;5382;42.136;24.796;2022-09-03T01:28:45;99605.97;;;20.22;100.00
10668;BME280;5382;42.136;24.796;2022-09-03T01:31:31;99613.69;;;20.25;100.00
10668;BME280;5382;42.136;24.796;2022-09-03T01:34:12;99624.41;;;20.25;100.00
10668;BME280;5382;42.136;24.796;2022-09-03T01:36:50;99631.41;;;20.35;100.00
10668;BME280;5382;42.136;24.796;2022-09-03T01:39:26;99506.53;;;19.61;100.00
10668;BME280;5382;42.136;24.796;2022-09-03T01:42:01;99627.41;;;20.31;100.00
10668;BME280;5382;42.136;24.796;2022-09-03T01:45:12;99606.88;;;20.15;100.00
10668;BME280;5382;42.136;24.796;2022-09-03T01:48:01;99625.81;;;20.21;100.00
10668;BME280;5382;42.136;24.796;2022-09-03T01:50:42;99623.75;;;20.23;100.00
10668;BME280;5382;42.136;24.796;2022-09-03T01:53:18;99585.53;;;19.98;100.00
10668;BME280;5382;42.136;24.796;2022-09-03T01:56:01;99629.34;;;20.22;100.00
10668;BME280;5382;42.136;24.796;2022-09-03T01:58:39;99628.13;;;20.24;100.00
10668;BME280;5382;42.136;24.796;2022-09-03T02:01:19;99622.56;;;20.26;100.00
10668;BME280;5382;42.136;24.796;2022-09-03T02:03:47;99621.38;;;20.29;100.00
10668;BME280;5382;42.136;24.796;2022-09-03T02:06:14;99627.78;;;20.27;100.00
10668;BME280;5382;42.136;24.796;2022-09-03T02:08:41;99622.69;;;20.33;100.00
10668;BME280;5382;42.136;24.796;2022-09-03T02:11:09;99629.09;;;20.32;100.00
10668;BME280;5382;42.136;24.796;2022-09-03T02:13:39;99633.22;;;20.19;100.00
10668;BME280;5382;42.136;24.796;2022-09-03T02:16:10;99634.28;;;20.33;100.00
10668;BME280;5382;42.136;24.796;2022-09-03T02:18:45;99637.16;;;20.32;100.00
10668;BME280;5382;42.136;24.796;2022-09-03T02:21:16;99644.56;;;20.30;100.00
10668;BME280;5382;42.136;24.796;2022-09-03T02:23:44;99644.34;;;20.31;100.00
10668;BME280;5382;42.136;24.796;2022-09-03T02:26:12;99625.03;;;20.13;100.00
10668;BME280;5382;42.136;24.796;2022-09-03T02:28:42;99648.75;;;20.32;100.00
10668;BME280;5382;42.136;24.796;2022-09-03T02:31:10;99649.09;;;20.29;100.00
10668;BME280;5382;42.136;24.796;2022-09-03T02:33:39;99651.59;;;20.31;100.00
10668;BME280;5382;42.136;24.796;2022-09-03T02:36:09;99623.88;;;20.07;100.00
10668;BME280;5382;42.136;24.796;2022-09-03T02:38:36;99641.81;;;20.15;100.00
10668;BME280;5382;42.136;24.796;2022-09-03T02:41:04;99666.81;;;20.38;100.00
10668;BME280;5382;42.136;24.796;2022-09-03T02:43:35;99659.13;;;20.35;100.00
10668;BME280;5382;42.136;24.796;2022-09-03T02:46:07;99658.69;;;20.23;100.00
10668;BME280;5382;42.136;24.796;2022-09-03T02:48:35;99668.84;;;20.36;100.00
10668;BME280;5382;42.136;24.796;2022-09-03T02:51:02;99662.63;;;20.36;100.00
10668;BME280;5382;42.136;24.796;2022-09-03T02:53:30;99663.97;;;20.40;100.00
10668;BME280;5382;42.136;24.796;2022-09-03T02:55:58;99654.88;;;20.18;100.00
10668;BME280;5382;42.136;24.796;2022-09-03T02:58:25;99665.16;;;20.37;100.00
10668;BME280;5382;42.136;24.796;2022-09-03T03:00:53;99667.91;;;20.29;100.00
10668;BME280;5382;42.136;24.796;2022-09-03T03:03:20;99658.66;;;20.32;100.00
10668;BME280;5382;42.136;24.796;2022-09-03T03:05:49;99661.34;;;20.32;100.00
10668;BME280;5382;42.136;24.796;2022-09-03T03:08:18;99652.53;;;20.15;100.00
10668;BME280;5382;42.136;24.796;2022-09-03T03:10:47;99669.63;;;20.22;100.00
10668;BME280;5382;42.136;24.796;2022-09-03T03:13:16;99668.91;;;20.28;100.00
10668;BME280;5382;42.136;24.796;2022-09-03T03:15:44;99667.13;;;20.20;100.00
10668;BME280;5382;42.136;24.796;2022-09-03T03:18:12;99635.06;;;19.96;100.00
10668;BME280;5382;42.136;24.796;2022-09-03T03:20:39;99670.16;;;20.17;100.00
10668;BME280;5382;42.136;24.796;2022-09-03T03:23:07;99662.25;;;20.16;100.00
10668;BME280;5382;42.136;24.796;2022-09-03T03:25:34;99638.44;;;19.90;100.00
10668;BME280;5382;42.136;24.796;2022-09-03T03:28:04;99642.38;;;20.02;100.00
10668;BME280;5382;42.136;24.796;2022-09-03T03:30:31;99661.78;;;20.12;100.00
10668;BME280;5382;42.136;24.796;2022-09-03T03:32:58;99653.50;;;19.99;100.00
10668;BME280;5382;42.136;24.796;2022-09-03T03:35:25;99672.75;;;20.02;100.00
10668;BME280;5382;42.136;24.796;2022-09-03T03:37:52;99669.25;;;20.02;100.00
10668;BME280;5382;42.136;24.796;2022-09-03T03:40:19;99668.63;;;19.92;100.00
10668;BME280;5382;42.136;24.796;2022-09-03T03:42:46;99663.09;;;19.93;100.00
10668;BME280;5382;42.136;24.796;2022-09-03T03:45:16;99659.84;;;19.98;100.00
10668;BME280;5382;42.136;24.796;2022-09-03T03:47:43;99660.06;;;19.96;100.00
10668;BME280;5382;42.136;24.796;2022-09-03T03:50:10;99673.78;;;20.01;100.00
10668;BME280;5382;42.136;24.796;2022-09-03T03:52:37;99666.78;;;19.92;100.00
10668;BME280;5382;42.136;24.796;2022-09-03T03:55:04;99673.66;;;19.95;100.00
10668;BME280;5382;42.136;24.796;2022-09-03T03:57:32;99662.91;;;19.95;100.00
10668;BME280;5382;42.136;24.796;2022-09-03T03:59:59;99665.94;;;19.92;100.00
10668;BME280;5382;42.136;24.796;2022-09-03T04:02:27;99648.88;;;19.85;100.00
10668;BME280;5382;42.136;24.796;2022-09-03T04:04:54;99659.84;;;19.98;100.00
10668;BME280;5382;42.136;24.796;2022-09-03T04:07:21;99663.25;;;19.92;100.00
10668;BME280;5382;42.136;24.796;2022-09-03T04:09:48;99671.28;;;20.00;100.00
10668;BME280;5382;42.136;24.796;2022-09-03T04:12:15;99674.31;;;19.97;100.00
10668;BME280;5382;42.136;24.796;2022-09-03T04:14:43;99679.31;;;20.00;100.00
10668;BME280;5382;42.136;24.796;2022-09-03T04:17:10;99671.78;;;19.95;100.00
10668;BME280;5382;42.136;24.796;2022-09-03T04:19:38;99681.84;;;20.01;100.00
10668;BME280;5382;42.136;24.796;2022-09-03T04:22:05;99664.59;;;19.96;100.00
10668;BME280;5382;42.136;24.796;2022-09-03T04:24:32;99686.38;;;20.01;100.00
10668;BME280;5382;42.136;24.796;2022-09-03T04:27:01;99685.72;;;19.99;100.00
10668;BME280;5382;42.136;24.796;2022-09-03T04:29:28;99669.47;;;19.92;100.00
10668;BME280;5382;42.136;24.796;2022-09-03T04:31:55;99680.34;;;19.99;100.00
10668;BME280;5382;42.136;24.796;2022-09-03T04:34:41;99693.78;;;19.99;100.00
10668;BME280;5382;42.136;24.796;2022-09-03T04:37:10;99685.78;;;19.82;100.00
10668;BME280;5382;42.136;24.796;2022-09-03T04:39:37;99689.66;;;19.88;100.00
10668;BME280;5382;42.136;24.796;2022-09-03T04:42:04;99696.84;;;19.88;100.00
10668;BME280;5382;42.136;24.796;2022-09-03T04:44:31;99650.97;;;19.58;100.00
10668;BME280;5382;42.136;24.796;2022-09-03T04:47:01;99696.88;;;19.79;100.00
10668;BME280;5382;42.136;24.796;2022-09-03T04:49:28;99697.72;;;19.80;100.00
10668;BME280;5382;42.136;24.796;2022-09-03T04:51:56;99682.84;;;19.69;100.00
10668;BME280;5382;42.136;24.796;2022-09-03T04:54:23;99708.09;;;19.91;100.00
10668;BME280;5382;42.136;24.796;2022-09-03T04:56:50;99659.25;;;19.48;100.00
10668;BME280;5382;42.136;24.796;2022-09-03T04:59:17;99688.81;;;19.79;100.00
10668;BME280;5382;42.136;24.796;2022-09-03T05:01:44;99720.31;;;19.94;100.00
10668;BME280;5382;42.136;24.796;2022-09-03T05:04:10;99716.25;;;19.98;100.00
10668;BME280;5382;42.136;24.796;2022-09-03T05:06:37;99713.56;;;19.98;100.00
10668;BME280;5382;42.136;24.796;2022-09-03T05:09:06;99712.06;;;20.03;100.00
10668;BME280;5382;42.136;24.796;2022-09-03T05:11:33;99722.13;;;20.01;100.00
10668;BME280;5382;42.136;24.796;2022-09-03T05:14:01;99720.22;;;20.10;100.00
10668;BME280;5382;42.136;24.796;2022-09-03T05:16:28;99734.53;;;20.02;100.00
10668;BME280;5382;42.136;24.796;2022-09-03T05:18:57;99719.25;;;20.03;100.00
10668;BME280;5382;42.136;24.796;2022-09-03T05:21:25;99724.72;;;20.18;100.00
10668;BME280;5382;42.136;24.796;2022-09-03T05:23:53;99725.16;;;20.30;100.00
10668;BME280;5382;42.136;24.796;2022-09-03T05:26:23;99730.53;;;20.30;100.00
10668;BME280;5382;42.136;24.796;2022-09-03T05:28:53;99735.91;;;20.30;100.00
10668;BME280;5382;42.136;24.796;2022-09-03T05:31:21;99737.94;;;20.27;100.00
10668;BME280;5382;42.136;24.796;2022-09-03T05:33:52;99736.91;;;20.29;100.00
10668;BME280;5382;42.136;24.796;2022-09-03T05:36:20;99738.09;;;20.34;100.00
10668;BME280;5382;42.136;24.796;2022-09-03T05:38:48;99707.94;;;20.16;100.00
10668;BME280;5382;42.136;24.796;2022-09-03T05:41:16;99724.66;;;20.26;100.00
10668;BME280;5382;42.136;24.796;2022-09-03T05:43:46;99724.44;;;20.36;100.00
10668;BME280;5382;42.136;24.796;2022-09-03T05:46:16;99747.09;;;20.41;100.00
10668;BME280;5382;42.136;24.796;2022-09-03T05:48:43;99738.13;;;20.49;100.00
10668;BME280;5382;42.136;24.796;2022-09-03T05:51:12;99746.03;;;20.51;100.00
10668;BME280;5382;42.136;24.796;2022-09-03T05:53:43;99740.78;;;20.57;100.00
10668;BME280;5382;42.136;24.796;2022-09-03T05:56:12;99749.00;;;20.64;100.00
10668;BME280;5382;42.136;24.796;2022-09-03T05:58:42;99757.34;;;20.69;100.00
10668;BME280;5382;42.136;24.796;2022-09-03T06:01:12;99738.97;;;20.58;100.00
10668;BME280;5382;42.136;24.796;2022-09-03T06:03:39;99708.25;;;20.44;100.00
10668;BME280;5382;42.136;24.796;2022-09-03T06:06:06;99734.22;;;20.83;100.00
10668;BME280;5382;42.136;24.796;2022-09-03T06:08:34;99735.22;;;20.82;100.00
10668;BME280;5382;42.136;24.796;2022-09-03T06:11:03;99751.31;;;20.90;100.00
10668;BME280;5382;42.136;24.796;2022-09-03T06:13:30;99757.44;;;20.99;100.00
10668;BME280;5382;42.136;24.796;2022-09-03T06:15:58;99751.72;;;21.02;100.00
10668;BME280;5382;42.136;24.796;2022-09-03T06:18:27;99743.00;;;21.00;100.00
10668;BME280;5382;42.136;24.796;2022-09-03T06:20:54;99744.78;;;21.07;100.00
10668;BME280;5382;42.136;24.796;2022-09-03T06:23:21;99751.69;;;21.25;100.00
10668;BME280;5382;42.136;24.796;2022-09-03T06:25:58;99751.97;;;21.30;100.00
10668;BME280;5382;42.136;24.796;2022-09-03T06:28:25;99768.06;;;21.38;100.00
10668;BME280;5382;42.136;24.796;2022-09-03T06:30:52;99769.00;;;21.45;100.00
10668;BME280;5382;42.136;24.796;2022-09-03T06:33:20;99767.81;;;21.48;100.00
10668;BME280;5382;42.136;24.796;2022-09-03T06:35:53;99737.41;;;21.39;100.00
10668;BME280;5382;42.136;24.796;2022-09-03T06:38:22;99757.50;;;21.66;100.00
10668;BME280;5382;42.136;24.796;2022-09-03T06:40:52;99746.25;;;21.77;100.00
10668;BME280;5382;42.136;24.796;2022-09-03T06:43:19;99746.53;;;21.83;100.00
10668;BME280;5382;42.136;24.796;2022-09-03T06:45:52;99752.19;;;22.03;100.00
10668;BME280;5382;42.136;24.796;2022-09-03T06:48:20;99768.81;;;22.21;100.00
10668;BME280;5382;42.136;24.796;2022-09-03T06:50:55;99733.66;;;22.14;100.00
10668;BME280;5382;42.136;24.796;2022-09-03T06:53:24;99761.44;;;22.30;100.00
10668;BME280;5382;42.136;24.796;2022-09-03T06:55:54;99765.59;;;22.32;100.00
10668;BME280;5382;42.136;24.796;2022-09-03T06:58:21;99743.13;;;22.25;100.00
10668;BME280;5382;42.136;24.796;2022-09-03T07:00:50;99755.78;;;22.25;100.00
10668;BME280;5382;42.136;24.796;2022-09-03T07:03:18;99766.94;;;22.21;100.00
10668;BME280;5382;42.136;24.796;2022-09-03T07:05:46;99754.75;;;22.11;100.00
10668;BME280;5382;42.136;24.796;2022-09-03T07:08:14;99766.47;;;22.18;100.00
10668;BME280;5382;42.136;24.796;2022-09-03T07:10:45;99764.31;;;22.13;100.00
10668;BME280;5382;42.136;24.796;2022-09-03T07:13:12;99760.91;;;22.19;100.00
10668;BME280;5382;42.136;24.796;2022-09-03T07:15:39;99764.50;;;22.27;100.00
10668;BME280;5382;42.136;24.796;2022-09-03T07:18:06;99769.47;;;22.45;100.00
10668;BME280;5382;42.136;24.796;2022-09-03T07:20:33;99764.34;;;22.50;100.00
10668;BME280;5382;42.136;24.796;2022-09-03T07:23:00;99766.28;;;22.56;100.00
10668;BME280;5382;42.136;24.796;2022-09-03T07:25:28;99785.69;;;22.66;100.00
10668;BME280;5382;42.136;24.796;2022-09-03T07:27:56;99781.59;;;22.70;100.00
10668;BME280;5382;42.136;24.796;2022-09-03T07:30:24;99789.38;;;22.80;100.00
10668;BME280;5382;42.136;24.796;2022-09-03T07:32:51;99789.88;;;22.90;100.00
10668;BME280;5382;42.136;24.796;2022-09-03T07:35:19;99795.06;;;22.92;100.00
10668;BME280;5382;42.136;24.796;2022-09-03T07:37:50;99783.63;;;22.90;100.00
10668;BME280;5382;42.136;24.796;2022-09-03T07:40:17;99785.03;;;23.00;100.00
10668;BME280;5382;42.136;24.796;2022-09-03T07:42:45;99786.75;;;23.08;100.00
10668;BME280;5382;42.136;24.796;2022-09-03T07:45:13;99783.09;;;23.16;100.00
10668;BME280;5382;42.136;24.796;2022-09-03T07:47:45;99788.13;;;23.25;100.00
10668;BME280;5382;42.136;24.796;2022-09-03T07:50:14;99797.53;;;23.36;100.00
10668;BME280;5382;42.136;24.796;2022-09-03T07:52:40;99800.25;;;23.36;100.00
10668;BME280;5382;42.136;24.796;2022-09-03T07:55:08;99795.31;;;23.40;100.00
10668;BME280;5382;42.136;24.796;2022-09-03T07:57:35;99812.66;;;23.52;100.00
10668;BME280;5382;42.136;24.796;2022-09-03T08:00:07;99801.44;;;23.55;100.00
10668;BME280;5382;42.136;24.796;2022-09-03T08:02:34;99805.03;;;23.62;100.00
10668;BME280;5382;42.136;24.796;2022-09-03T08:05:03;99807.34;;;23.65;100.00
10668;BME280;5382;42.136;24.796;2022-09-03T08:07:31;99791.38;;;23.70;100.00
10668;BME280;5382;42.136;24.796;2022-09-03T08:09:58;99773.19;;;23.86;100.00
10668;BME280;5382;42.136;24.796;2022-09-03T08:12:27;99788.78;;;23.90;100.00
10668;BME280;5382;42.136;24.796;2022-09-03T08:14:54;99775.78;;;24.07;100.00
10668;BME280;5382;42.136;24.796;2022-09-03T08:17:23;99784.53;;;24.16;100.00
10668;BME280;5382;42.136;24.796;2022-09-03T08:19:50;99784.16;;;24.19;100.00
10668;BME280;5382;42.136;24.796;2022-09-03T08:22:17;99779.34;;;24.14;100.00
10668;BME280;5382;42.136;24.796;2022-09-03T08:24:45;99762.91;;;24.16;100.00
10668;BME280;5382;42.136;24.796;2022-09-03T08:27:12;99794.34;;;24.24;100.00
10668;BME280;5382;42.136;24.796;2022-09-03T08:29:40;99800.41;;;24.26;100.00
10668;BME280;5382;42.136;24.796;2022-09-03T08:32:06;99781.91;;;24.29;100.00
10668;BME280;5382;42.136;24.796;2022-09-03T08:34:35;99777.38;;;24.43;100.00
10668;BME280;5382;42.136;24.796;2022-09-03T08:37:01;99777.66;;;24.62;100.00
10668;BME280;5382;42.136;24.796;2022-09-03T08:39:30;99774.97;;;24.75;100.00
10668;BME280;5382;42.136;24.796;2022-09-03T08:42:14;99775.41;;;24.85;100.00
10668;BME280;5382;42.136;24.796;2022-09-03T08:44:47;99781.66;;;24.86;100.00
10668;BME280;5382;42.136;24.796;2022-09-03T08:47:19;99782.91;;;24.90;100.00
10668;BME280;5382;42.136;24.796;2022-09-03T08:49:51;99771.47;;;24.94;100.00
10668;BME280;5382;42.136;24.796;2022-09-03T08:52:25;99770.84;;;24.99;100.00
10668;BME280;5382;42.136;24.796;2022-09-03T08:55:03;99780.63;;;25.07;100.00
10668;BME280;5382;42.136;24.796;2022-09-03T08:57:40;99766.09;;;25.21;100.00
10668;BME280;5382;42.136;24.796;2022-09-03T09:00:09;99757.56;;;25.17;100.00
10668;BME280;5382;42.136;24.796;2022-09-03T09:02:44;99724.22;;;24.97;100.00
10668;BME280;5382;42.136;24.796;2022-09-03T09:05:17;99747.75;;;25.23;100.00
10668;BME280;5382;42.136;24.796;2022-09-03T09:07:50;99764.00;;;25.43;100.00
10668;BME280;5382;42.136;24.796;2022-09-03T09:10:26;99758.75;;;25.55;100.00
10668;BME280;5382;42.136;24.796;2022-09-03T09:13:05;99761.38;;;25.81;100.00
10668;BME280;5382;42.136;24.796;2022-09-03T09:15:42;99764.69;;;26.03;100.00
10668;BME280;5382;42.136;24.796;2022-09-03T09:18:19;99761.34;;;26.01;100.00
10668;BME280;5382;42.136;24.796;2022-09-03T09:20:52;99730.50;;;25.96;100.00
10668;BME280;5382;42.136;24.796;2022-09-03T09:23:26;99767.56;;;26.15;100.00
10668;BME280;5382;42.136;24.796;2022-09-03T09:25:56;99749.53;;;26.34;100.00
10668;BME280;5382;42.136;24.796;2022-09-03T09:28:28;99760.50;;;26.46;100.00
10668;BME280;5382;42.136;24.796;2022-09-03T09:31:00;99759.88;;;26.57;100.00
10668;BME280;5382;42.136;24.796;2022-09-03T09:33:29;99764.59;;;26.68;99.64
10668;BME280;5382;42.136;24.796;2022-09-03T09:36:00;99759.78;;;26.70;97.08
10668;BME280;5382;42.136;24.796;2022-09-03T09:38:30;99767.66;;;26.79;98.14
10668;BME280;5382;42.136;24.796;2022-09-03T09:41:07;99754.31;;;26.77;98.41
10668;BME280;5382;42.136;24.796;2022-09-03T09:43:34;99770.97;;;26.81;96.28
10668;BME280;5382;42.136;24.796;2022-09-03T09:46:07;99752.88;;;27.00;95.96
10668;BME280;5382;42.136;24.796;2022-09-03T09:48:37;99737.31;;;26.88;95.95
10668;BME280;5382;42.136;24.796;2022-09-03T09:51:11;99752.16;;;27.11;96.27
10668;BME280;5382;42.136;24.796;2022-09-03T09:53:40;99748.75;;;27.15;95.84
10668;BME280;5382;42.136;24.796;2022-09-03T09:56:07;99748.78;;;27.40;95.32
10668;BME280;5382;42.136;24.796;2022-09-03T09:58:34;99751.97;;;27.56;92.46
10668;BME280;5382;42.136;24.796;2022-09-03T10:01:04;99744.41;;;27.39;92.86
10668;BME280;5382;42.136;24.796;2022-09-03T10:03:40;99756.41;;;27.50;91.37
10668;BME280;5382;42.136;24.796;2022-09-03T10:06:15;99742.53;;;27.58;91.72
10668;BME280;5382;42.136;24.796;2022-09-03T10:09:08;99740.94;;;27.69;90.54
10668;BME280;5382;42.136;24.796;2022-09-03T10:11:37;99739.19;;;27.75;89.84
10668;BME280;5382;42.136;24.796;2022-09-03T10:14:10;99734.06;;;27.67;89.79
10668;BME280;5382;42.136;24.796;2022-09-03T10:16:43;99721.72;;;27.89;89.60
10668;BME280;5382;42.136;24.796;2022-09-03T10:19:17;99701.47;;;27.85;88.02
10668;BME280;5382;42.136;24.796;2022-09-03T10:21:52;99709.44;;;27.98;89.58
10668;BME280;5382;42.136;24.796;2022-09-03T10:24:43;99705.94;;;28.28;88.05
10668;BME280;5382;42.136;24.796;2022-09-03T10:27:15;99713.38;;;28.63;88.32
10668;BME280;5382;42.136;24.796;2022-09-03T10:29:43;99699.53;;;28.53;85.36
10668;BME280;5382;42.136;24.796;2022-09-03T10:32:20;99712.34;;;28.64;85.75
10668;BME280;5382;42.136;24.796;2022-09-03T10:35:01;99708.00;;;28.98;82.56
10668;BME280;5382;42.136;24.796;2022-09-03T10:37:36;99703.28;;;29.17;82.95
10668;BME280;5382;42.136;24.796;2022-09-03T10:40:13;99701.41;;;29.29;83.67
10668;BME280;5382;42.136;24.796;2022-09-03T10:42:44;99699.31;;;29.84;80.26
10668;BME280;5382;42.136;24.796;2022-09-03T10:45:27;99707.63;;;30.29;76.80
10668;BME280;5382;42.136;24.796;2022-09-03T10:51:01;99680.28;;;30.75;71.50
10668;BME280;5382;42.136;24.796;2022-09-03T10:53:42;99694.69;;;30.70;73.28
10668;BME280;5382;42.136;24.796;2022-09-03T10:56:16;99689.25;;;31.04;73.14
10668;BME280;5382;42.136;24.796;2022-09-03T10:59:06;99698.69;;;31.74;67.10
10668;BME280;5382;42.136;24.796;2022-09-03T11:01:43;99691.78;;;32.37;63.36
10668;BME280;5382;42.136;24.796;2022-09-03T11:04:26;99688.81;;;33.04;60.62
10668;BME280;5382;42.136;24.796;2022-09-03T11:06:59;99690.72;;;32.16;62.72
10668;BME280;5382;42.136;24.796;2022-09-03T11:09:35;99681.31;;;32.34;66.91
10668;BME280;5382;42.136;24.796;2022-09-03T11:12:07;99684.41;;;32.70;61.27
10668;BME280;5382;42.136;24.796;2022-09-03T11:14:39;99687.59;;;32.89;60.25
10668;BME280;5382;42.136;24.796;2022-09-03T11:17:12;99670.78;;;33.13;57.74
10668;BME280;5382;42.136;24.796;2022-09-03T11:19:46;99702.78;;;33.02;56.89
10668;BME280;5382;42.136;24.796;2022-09-03T11:22:16;99673.22;;;33.09;56.15
10668;BME280;5382;42.136;24.796;2022-09-03T11:24:46;99672.03;;;33.00;56.57
10668;BME280;5382;42.136;24.796;2022-09-03T11:27:29;99681.34;;;33.99;56.73
10668;BME280;5382;42.136;24.796;2022-09-03T11:30:01;99679.81;;;34.39;52.27
10668;BME280;5382;42.136;24.796;2022-09-03T11:32:40;99662.50;;;34.74;51.25
10668;BME280;5382;42.136;24.796;2022-09-03T11:35:15;99678.13;;;34.38;51.80
10668;BME280;5382;42.136;24.796;2022-09-03T11:37:52;99654.53;;;34.52;52.52
10668;BME280;5382;42.136;24.796;2022-09-03T11:40:28;99667.69;;;34.20;52.26
10668;BME280;5382;42.136;24.796;2022-09-03T11:43:05;99661.97;;;34.78;50.38
10668;BME280;5382;42.136;24.796;2022-09-03T11:45:37;99663.88;;;34.62;49.26
10668;BME280;5382;42.136;24.796;2022-09-03T11:48:17;99663.06;;;34.61;49.24
10668;BME280;5382;42.136;24.796;2022-09-03T11:50:52;99666.13;;;34.60;49.99
10668;BME280;5382;42.136;24.796;2022-09-03T11:53:25;99657.69;;;35.47;48.38
10668;BME280;5382;42.136;24.796;2022-09-03T11:55:59;99656.09;;;36.00;47.03
10668;BME280;5382;42.136;24.796;2022-09-03T11:58:29;99651.88;;;36.18;45.47
10668;BME280;5382;42.136;24.796;2022-09-03T12:00:57;99664.66;;;35.99;44.57
10668;BME280;5382;42.136;24.796;2022-09-03T12:03:28;99670.25;;;36.33;42.84
10668;BME280;5382;42.136;24.796;2022-09-03T12:06:12;99674.03;;;35.93;43.61
10668;BME280;5382;42.136;24.796;2022-09-03T12:09:10;99661.94;;;35.94;43.44
10668;BME280;5382;42.136;24.796;2022-09-03T12:11:51;99654.88;;;36.22;41.49
10668;BME280;5382;42.136;24.796;2022-09-03T12:14:25;99652.19;;;35.52;43.27
10668;BME280;5382;42.136;24.796;2022-09-03T12:17:07;99651.66;;;35.50;43.63
10668;BME280;5382;42.136;24.796;2022-09-03T12:19:43;99654.72;;;35.98;42.01
10668;BME280;5382;42.136;24.796;2022-09-03T12:22:16;99649.56;;;36.36;42.39
10668;BME280;5382;42.136;24.796;2022-09-03T12:24:43;99635.88;;;36.20;42.91
10668;BME280;5382;42.136;24.796;2022-09-03T12:27:15;99637.59;;;36.11;43.54
10668;BME280;5382;42.136;24.796;2022-09-03T12:29:54;99649.47;;;35.42;43.92
10668;BME280;5382;42.136;24.796;2022-09-03T12:32:23;99640.22;;;35.02;44.78
10668;BME280;5382;42.136;24.796;2022-09-03T12:34:51;99641.28;;;35.16;43.70
10668;BME280;5382;42.136;24.796;2022-09-03T12:37:19;99639.22;;;35.52;43.60
10668;BME280;5382;42.136;24.796;2022-09-03T12:39:53;99654.88;;;35.72;41.37
10668;BME280;5382;42.136;24.796;2022-09-03T12:42:25;99649.75;;;36.44;39.17
10668;BME280;5382;42.136;24.796;2022-09-03T12:44:52;99648.00;;;36.19;39.23
10668;BME280;5382;42.136;24.796;2022-09-03T12:47:22;99629.72;;;36.97;38.53
10668;BME280;5382;42.136;24.796;2022-09-03T12:49:50;99638.44;;;37.58;35.54
10668;BME280;5382;42.136;24.796;2022-09-03T12:52:22;99642.94;;;37.00;36.45
10668;BME280;5382;42.136;24.796;2022-09-03T12:54:55;99632.06;;;37.81;35.43
10668;BME280;5382;42.136;24.796;2022-09-03T12:57:28;99628.25;;;37.77;34.84
10668;BME280;5382;42.136;24.796;2022-09-03T13:00:02;99618.06;;;37.29;35.03
10668;BME280;5382;42.136;24.796;2022-09-03T13:02:35;99631.50;;;38.03;34.13
10668;BME280;5382;42.136;24.796;2022-09-03T13:05:05;99626.94;;;38.64;32.80
10668;BME280;5382;42.136;24.796;2022-09-03T13:07:38;99628.19;;;37.82;33.46
10668;BME280;5382;42.136;24.796;2022-09-03T13:10:15;99638.00;;;36.68;35.36
10668;BME280;5382;42.136;24.796;2022-09-03T13:12:50;99629.13;;;35.37;37.61
10668;BME280;5382;42.136;24.796;2022-09-03T13:15:20;99612.75;;;34.35;41.06
10668;BME280;5382;42.136;24.796;2022-09-03T13:18:00;99625.84;;;33.87;42.98
10668;BME280;5382;42.136;24.796;2022-09-03T13:20:34;99630.94;;;33.53;44.13
10668;BME280;5382;42.136;24.796;2022-09-03T13:23:13;99630.47;;;33.71;43.64